sensor_id;sensor_type;location;lat;lon;timestamp;P1;durP1;ratioP1;P2;durP2;ratioP2
83893;SDS011;73920;51.902;6.374;2024-01-16T00:01:53;7.22;;;2.55;;
83893;SDS011;73920;51.902;6.374;2024-01-16T00:04:21;8.90;;;2.80;;
83893;SDS011;73920;51.902;6.374;2024-01-16T00:06:47;9.55;;;3.20;;
83893;SDS011;73920;51.902;6.374;2024-01-16T00:09:13;4.87;;;3.22;;
83893;SDS011;73920;51.902;6.374;2024-01-16T00:11:42;9.15;;;3.78;;
83893;SDS011;73920;51.902;6.374;2024-01-16T00:14:09;13.48;;;3.50;;
83893;SDS011;73920;51.902;6.374;2024-01-16T00:19:07;6.40;;;3.08;;
83893;SDS011;73920;51.902;6.374;2024-01-16T00:21:37;7.80;;;3.80;;
83893;SDS011;73920;51.902;6.374;2024-01-16T00:24:04;6.75;;;2.75;;
83893;SDS011;73920;51.902;6.374;2024-01-16T00:26:31;5.43;;;2.67;;
83893;SDS011;73920;51.902;6.374;2024-01-16T00:28:57;10.05;;;3.22;;
83893;SDS011;73920;51.902;6.374;2024-01-16T00:31:23;7.72;;;3.15;;
83893;SDS011;73920;51.902;6.374;2024-01-16T00:33:49;5.68;;;3.28;;
83893;SDS011;73920;51.902;6.374;2024-01-16T00:36:16;8.45;;;3.10;;
83893;SDS011;73920;51.902;6.374;2024-01-16T00:38:42;5.47;;;2.70;;
83893;SDS011;73920;51.902;6.374;2024-01-16T00:41:08;9.25;;;2.78;;
83893;SDS011;73920;51.902;6.374;2024-01-16T00:43:34;4.72;;;2.85;;
83893;SDS011;73920;51.902;6.374;2024-01-16T00:46:01;7.55;;;2.92;;
83893;SDS011;73920;51.902;6.374;2024-01-16T00:48:27;9.48;;;2.83;;
83893;SDS011;73920;51.902;6.374;2024-01-16T00:50:53;7.20;;;2.67;;
83893;SDS011;73920;51.902;6.374;2024-01-16T00:53:20;7.62;;;3.50;;
83893;SDS011;73920;51.902;6.374;2024-01-16T00:55:46;7.03;;;2.70;;
83893;SDS011;73920;51.902;6.374;2024-01-16T00:58:12;11.00;;;3.30;;
83893;SDS011;73920;51.902;6.374;2024-01-16T01:00:39;7.57;;;3.05;;
83893;SDS011;73920;51.902;6.374;2024-01-16T01:03:05;8.65;;;3.08;;
83893;SDS011;73920;51.902;6.374;2024-01-16T01:05:31;5.40;;;2.90;;
83893;SDS011;73920;51.902;6.374;2024-01-16T01:07:57;5.93;;;3.37;;
83893;SDS011;73920;51.902;6.374;2024-01-16T01:10:24;8.52;;;4.12;;
83893;SDS011;73920;51.902;6.374;2024-01-16T01:12:50;11.30;;;3.50;;
83893;SDS011;73920;51.902;6.374;2024-01-16T01:15:16;8.43;;;3.78;;
83893;SDS011;73920;51.902;6.374;2024-01-16T01:17:43;12.52;;;3.15;;
83893;SDS011;73920;51.902;6.374;2024-01-16T01:20:09;7.72;;;2.95;;
83893;SDS011;73920;51.902;6.374;2024-01-16T01:22:36;11.15;;;3.00;;
83893;SDS011;73920;51.902;6.374;2024-01-16T01:25:02;8.60;;;3.12;;
83893;SDS011;73920;51.902;6.374;2024-01-16T01:27:29;8.65;;;3.10;;
83893;SDS011;73920;51.902;6.374;2024-01-16T01:29:55;6.78;;;2.80;;
83893;SDS011;73920;51.902;6.374;2024-01-16T01:32:22;11.32;;;3.25;;
83893;SDS011;73920;51.902;6.374;2024-01-16T01:34:48;6.07;;;3.17;;
83893;SDS011;73920;51.902;6.374;2024-01-16T01:37:15;7.72;;;3.20;;
83893;SDS011;73920;51.902;6.374;2024-01-16T01:39:41;7.93;;;2.58;;
83893;SDS011;73920;51.902;6.374;2024-01-16T01:42:07;8.05;;;3.28;;
83893;SDS011;73920;51.902;6.374;2024-01-16T01:44:33;10.82;;;2.75;;
83893;SDS011;73920;51.902;6.374;2024-01-16T01:47:00;9.50;;;3.87;;
83893;SDS011;73920;51.902;6.374;2024-01-16T01:49:26;8.85;;;3.40;;
83893;SDS011;73920;51.902;6.374;2024-01-16T01:51:53;7.62;;;3.05;;
83893;SDS011;73920;51.902;6.374;2024-01-16T01:54:20;6.45;;;2.58;;
83893;SDS011;73920;51.902;6.374;2024-01-16T01:56:48;7.65;;;3.00;;
83893;SDS011;73920;51.902;6.374;2024-01-16T01:59:15;12.07;;;3.37;;
83893;SDS011;73920;51.902;6.374;2024-01-16T02:01:43;8.95;;;2.70;;
83893;SDS011;73920;51.902;6.374;2024-01-16T02:04:12;10.00;;;3.28;;
83893;SDS011;73920;51.902;6.374;2024-01-16T02:06:41;9.98;;;3.30;;
83893;SDS011;73920;51.902;6.374;2024-01-16T02:09:08;5.75;;;3.25;;
83893;SDS011;73920;51.902;6.374;2024-01-16T02:11:34;10.57;;;3.00;;
83893;SDS011;73920;51.902;6.374;2024-01-16T02:14:00;12.00;;;3.08;;
83893;SDS011;73920;51.902;6.374;2024-01-16T02:16:26;9.80;;;3.72;;
83893;SDS011;73920;51.902;6.374;2024-01-16T02:19:00;8.68;;;3.35;;
83893;SDS011;73920;51.902;6.374;2024-01-16T02:21:27;8.38;;;3.50;;
83893;SDS011;73920;51.902;6.374;2024-01-16T02:23:56;8.95;;;3.67;;
83893;SDS011;73920;51.902;6.374;2024-01-16T02:26:23;7.32;;;3.28;;
83893;SDS011;73920;51.902;6.374;2024-01-16T02:28:49;15.70;;;3.95;;
83893;SDS011;73920;51.902;6.374;2024-01-16T02:31:15;8.60;;;3.33;;
83893;SDS011;73920;51.902;6.374;2024-01-16T02:33:41;8.77;;;3.53;;
83893;SDS011;73920;51.902;6.374;2024-01-16T02:36:07;8.82;;;3.20;;
83893;SDS011;73920;51.902;6.374;2024-01-16T02:38:36;8.88;;;3.90;;
83893;SDS011;73920;51.902;6.374;2024-01-16T02:41:03;8.68;;;3.25;;
83893;SDS011;73920;51.902;6.374;2024-01-16T02:43:29;10.35;;;4.12;;
83893;SDS011;73920;51.902;6.374;2024-01-16T02:45:55;10.13;;;3.75;;
83893;SDS011;73920;51.902;6.374;2024-01-16T02:48:22;9.02;;;3.53;;
83893;SDS011;73920;51.902;6.374;2024-01-16T02:50:48;9.20;;;3.70;;
83893;SDS011;73920;51.902;6.374;2024-01-16T02:53:14;9.82;;;4.12;;
83893;SDS011;73920;51.902;6.374;2024-01-16T02:55:41;8.65;;;3.60;;
83893;SDS011;73920;51.902;6.374;2024-01-16T02:58:07;9.07;;;4.57;;
83893;SDS011;73920;51.902;6.374;2024-01-16T03:00:33;10.23;;;4.37;;
83893;SDS011;73920;51.902;6.374;2024-01-16T03:03:00;9.88;;;4.10;;
83893;SDS011;73920;51.902;6.374;2024-01-16T03:05:26;13.52;;;4.85;;
83893;SDS011;73920;51.902;6.374;2024-01-16T03:07:52;9.60;;;4.40;;
83893;SDS011;73920;51.902;6.374;2024-01-16T03:10:18;11.10;;;4.37;;
83893;SDS011;73920;51.902;6.374;2024-01-16T03:12:44;14.75;;;4.75;;
83893;SDS011;73920;51.902;6.374;2024-01-16T03:15:11;10.18;;;4.87;;
83893;SDS011;73920;51.902;6.374;2024-01-16T03:17:37;9.07;;;4.20;;
83893;SDS011;73920;51.902;6.374;2024-01-16T03:20:04;10.73;;;4.70;;
83893;SDS011;73920;51.902;6.374;2024-01-16T03:22:31;14.98;;;5.10;;
83893;SDS011;73920;51.902;6.374;2024-01-16T03:24:57;14.00;;;5.43;;
83893;SDS011;73920;51.902;6.374;2024-01-16T03:27:23;12.25;;;4.70;;
83893;SDS011;73920;51.902;6.374;2024-01-16T03:29:49;12.07;;;5.15;;
83893;SDS011;73920;51.902;6.374;2024-01-16T03:32:15;11.98;;;4.55;;
83893;SDS011;73920;51.902;6.374;2024-01-16T03:34:42;13.68;;;4.65;;
83893;SDS011;73920;51.902;6.374;2024-01-16T03:37:08;10.50;;;4.15;;
83893;SDS011;73920;51.902;6.374;2024-01-16T03:39:34;12.55;;;4.53;;
83893;SDS011;73920;51.902;6.374;2024-01-16T03:42:00;14.00;;;4.47;;
83893;SDS011;73920;51.902;6.374;2024-01-16T03:44:27;13.82;;;4.35;;
83893;SDS011;73920;51.902;6.374;2024-01-16T03:46:53;14.57;;;4.50;;
83893;SDS011;73920;51.902;6.374;2024-01-16T03:49:19;14.23;;;4.50;;
83893;SDS011;73920;51.902;6.374;2024-01-16T03:51:46;11.45;;;3.80;;
83893;SDS011;73920;51.902;6.374;2024-01-16T03:54:12;6.35;;;3.22;;
83893;SDS011;73920;51.902;6.374;2024-01-16T03:56:39;8.07;;;3.83;;
83893;SDS011;73920;51.902;6.374;2024-01-16T03:59:05;9.45;;;3.90;;
83893;SDS011;73920;51.902;6.374;2024-01-16T04:01:32;9.07;;;3.80;;
83893;SDS011;73920;51.902;6.374;2024-01-16T04:03:59;11.48;;;3.45;;
83893;SDS011;73920;51.902;6.374;2024-01-16T04:06:25;5.97;;;3.45;;
83893;SDS011;73920;51.902;6.374;2024-01-16T04:08:52;12.27;;;4.03;;
83893;SDS011;73920;51.902;6.374;2024-01-16T04:11:18;8.88;;;3.90;;
83893;SDS011;73920;51.902;6.374;2024-01-16T04:13:44;10.65;;;4.45;;
83893;SDS011;73920;51.902;6.374;2024-01-16T04:16:11;7.10;;;3.45;;
83893;SDS011;73920;51.902;6.374;2024-01-16T04:18:39;13.45;;;4.10;;
83893;SDS011;73920;51.902;6.374;2024-01-16T04:21:07;9.05;;;4.30;;
83893;SDS011;73920;51.902;6.374;2024-01-16T04:23:33;10.07;;;4.00;;
83893;SDS011;73920;51.902;6.374;2024-01-16T04:25:59;12.15;;;4.53;;
83893;SDS011;73920;51.902;6.374;2024-01-16T04:28:26;9.20;;;4.25;;
83893;SDS011;73920;51.902;6.374;2024-01-16T04:30:52;8.43;;;4.10;;
83893;SDS011;73920;51.902;6.374;2024-01-16T04:33:18;9.10;;;4.03;;
83893;SDS011;73920;51.902;6.374;2024-01-16T04:35:45;12.93;;;4.15;;
83893;SDS011;73920;51.902;6.374;2024-01-16T04:38:11;7.90;;;3.40;;
83893;SDS011;73920;51.902;6.374;2024-01-16T04:40:38;7.93;;;4.25;;
83893;SDS011;73920;51.902;6.374;2024-01-16T04:43:04;8.73;;;3.72;;
83893;SDS011;73920;51.902;6.374;2024-01-16T04:45:30;6.43;;;3.58;;
83893;SDS011;73920;51.902;6.374;2024-01-16T04:47:56;9.82;;;3.42;;
83893;SDS011;73920;51.902;6.374;2024-01-16T04:50:23;10.20;;;4.03;;
83893;SDS011;73920;51.902;6.374;2024-01-16T04:52:49;9.05;;;3.67;;
83893;SDS011;73920;51.902;6.374;2024-01-16T04:55:15;8.73;;;3.78;;
83893;SDS011;73920;51.902;6.374;2024-01-16T04:57:41;7.65;;;4.10;;
83893;SDS011;73920;51.902;6.374;2024-01-16T05:00:08;8.00;;;3.45;;
83893;SDS011;73920;51.902;6.374;2024-01-16T05:02:35;7.97;;;3.72;;
83893;SDS011;73920;51.902;6.374;2024-01-16T05:05:01;12.40;;;3.90;;
83893;SDS011;73920;51.902;6.374;2024-01-16T05:07:28;12.02;;;4.35;;
83893;SDS011;73920;51.902;6.374;2024-01-16T05:09:54;13.05;;;4.00;;
83893;SDS011;73920;51.902;6.374;2024-01-16T05:12:20;9.70;;;5.00;;
83893;SDS011;73920;51.902;6.374;2024-01-16T05:14:46;8.95;;;4.18;;
83893;SDS011;73920;51.902;6.374;2024-01-16T05:17:12;6.32;;;3.83;;
83893;SDS011;73920;51.902;6.374;2024-01-16T05:19:39;10.00;;;3.85;;
83893;SDS011;73920;51.902;6.374;2024-01-16T05:22:05;9.82;;;4.28;;
83893;SDS011;73920;51.902;6.374;2024-01-16T05:24:31;7.07;;;3.42;;
83893;SDS011;73920;51.902;6.374;2024-01-16T05:26:57;8.95;;;4.05;;
83893;SDS011;73920;51.902;6.374;2024-01-16T05:29:23;8.23;;;4.05;;
83893;SDS011;73920;51.902;6.374;2024-01-16T05:31:50;7.97;;;3.58;;
83893;SDS011;73920;51.902;6.374;2024-01-16T05:34:16;8.70;;;3.90;;
83893;SDS011;73920;51.902;6.374;2024-01-16T05:36:42;8.88;;;3.90;;
83893;SDS011;73920;51.902;6.374;2024-01-16T05:39:08;7.82;;;3.80;;
83893;SDS011;73920;51.902;6.374;2024-01-16T05:41:34;9.02;;;3.85;;
83893;SDS011;73920;51.902;6.374;2024-01-16T05:44:01;9.43;;;4.03;;
83893;SDS011;73920;51.902;6.374;2024-01-16T05:46:27;9.15;;;3.80;;
83893;SDS011;73920;51.902;6.374;2024-01-16T05:48:53;8.73;;;4.03;;
83893;SDS011;73920;51.902;6.374;2024-01-16T05:51:20;6.40;;;3.62;;
83893;SDS011;73920;51.902;6.374;2024-01-16T05:53:46;7.18;;;3.58;;
83893;SDS011;73920;51.902;6.374;2024-01-16T05:56:12;8.38;;;3.80;;
83893;SDS011;73920;51.902;6.374;2024-01-16T05:58:38;9.82;;;4.18;;
83893;SDS011;73920;51.902;6.374;2024-01-16T06:01:05;6.00;;;3.00;;
83893;SDS011;73920;51.902;6.374;2024-01-16T06:03:31;6.70;;;3.10;;
83893;SDS011;73920;51.902;6.374;2024-01-16T06:05:58;6.18;;;3.17;;
83893;SDS011;73920;51.902;6.374;2024-01-16T06:08:24;7.68;;;2.83;;
83893;SDS011;73920;51.902;6.374;2024-01-16T06:10:51;8.02;;;2.40;;
83893;SDS011;73920;51.902;6.374;2024-01-16T06:13:20;4.85;;;2.00;;
83893;SDS011;73920;51.902;6.374;2024-01-16T06:15:47;4.30;;;2.20;;
83893;SDS011;73920;51.902;6.374;2024-01-16T06:18:13;4.60;;;2.40;;
83893;SDS011;73920;51.902;6.374;2024-01-16T06:20:39;6.07;;;2.35;;
83893;SDS011;73920;51.902;6.374;2024-01-16T06:23:06;6.22;;;2.10;;
83893;SDS011;73920;51.902;6.374;2024-01-16T06:25:32;3.83;;;2.08;;
83893;SDS011;73920;51.902;6.374;2024-01-16T06:27:58;6.80;;;2.47;;
83893;SDS011;73920;51.902;6.374;2024-01-16T06:30:24;4.70;;;2.28;;
83893;SDS011;73920;51.902;6.374;2024-01-16T06:32:50;5.35;;;2.20;;
83893;SDS011;73920;51.902;6.374;2024-01-16T06:35:17;5.70;;;2.50;;
83893;SDS011;73920;51.902;6.374;2024-01-16T06:37:43;6.45;;;2.22;;
83893;SDS011;73920;51.902;6.374;2024-01-16T06:40:10;5.60;;;2.17;;
83893;SDS011;73920;51.902;6.374;2024-01-16T06:42:37;6.07;;;2.72;;
83893;SDS011;73920;51.902;6.374;2024-01-16T06:45:03;5.78;;;2.53;;
83893;SDS011;73920;51.902;6.374;2024-01-16T06:47:30;7.75;;;2.58;;
83893;SDS011;73920;51.902;6.374;2024-01-16T06:49:57;6.45;;;2.90;;
83893;SDS011;73920;51.902;6.374;2024-01-16T06:52:23;6.32;;;2.78;;
83893;SDS011;73920;51.902;6.374;2024-01-16T06:54:50;9.30;;;4.82;;
83893;SDS011;73920;51.902;6.374;2024-01-16T06:57:16;9.35;;;3.37;;
83893;SDS011;73920;51.902;6.374;2024-01-16T06:59:42;10.65;;;4.00;;
83893;SDS011;73920;51.902;6.374;2024-01-16T07:02:08;6.85;;;3.55;;
83893;SDS011;73920;51.902;6.374;2024-01-16T07:04:34;12.40;;;4.12;;
83893;SDS011;73920;51.902;6.374;2024-01-16T07:07:01;11.80;;;4.28;;
83893;SDS011;73920;51.902;6.374;2024-01-16T07:09:27;12.43;;;4.45;;
83893;SDS011;73920;51.902;6.374;2024-01-16T07:11:53;9.68;;;4.00;;
83893;SDS011;73920;51.902;6.374;2024-01-16T07:14:20;8.85;;;3.92;;
83893;SDS011;73920;51.902;6.374;2024-01-16T07:16:46;9.32;;;3.87;;
83893;SDS011;73920;51.902;6.374;2024-01-16T07:19:12;10.57;;;4.55;;
83893;SDS011;73920;51.902;6.374;2024-01-16T07:21:38;12.50;;;4.68;;
83893;SDS011;73920;51.902;6.374;2024-01-16T07:24:05;10.18;;;4.80;;
83893;SDS011;73920;51.902;6.374;2024-01-16T07:26:31;11.32;;;4.28;;
83893;SDS011;73920;51.902;6.374;2024-01-16T07:28:58;6.57;;;3.97;;
83893;SDS011;73920;51.902;6.374;2024-01-16T07:31:25;10.15;;;4.28;;
83893;SDS011;73920;51.902;6.374;2024-01-16T07:33:51;8.45;;;3.80;;
83893;SDS011;73920;51.902;6.374;2024-01-16T07:36:17;14.35;;;4.47;;
83893;SDS011;73920;51.902;6.374;2024-01-16T07:38:44;7.85;;;3.92;;
83893;SDS011;73920;51.902;6.374;2024-01-16T07:41:10;9.77;;;4.18;;
83893;SDS011;73920;51.902;6.374;2024-01-16T07:43:36;13.15;;;5.22;;
83893;SDS011;73920;51.902;6.374;2024-01-16T07:46:02;9.63;;;3.85;;
83893;SDS011;73920;51.902;6.374;2024-01-16T07:48:29;9.85;;;4.57;;
83893;SDS011;73920;51.902;6.374;2024-01-16T07:50:55;14.95;;;4.68;;
83893;SDS011;73920;51.902;6.374;2024-01-16T07:53:21;14.65;;;4.85;;
83893;SDS011;73920;51.902;6.374;2024-01-16T07:55:47;13.18;;;6.28;;
83893;SDS011;73920;51.902;6.374;2024-01-16T07:58:13;12.05;;;4.82;;
83893;SDS011;73920;51.902;6.374;2024-01-16T08:00:40;16.55;;;5.55;;
83893;SDS011;73920;51.902;6.374;2024-01-16T08:03:07;15.32;;;4.82;;
83893;SDS011;73920;51.902;6.374;2024-01-16T08:05:34;13.35;;;5.57;;
83893;SDS011;73920;51.902;6.374;2024-01-16T08:08:00;11.43;;;5.25;;
83893;SDS011;73920;51.902;6.374;2024-01-16T08:10:26;11.52;;;5.75;;
83893;SDS011;73920;51.902;6.374;2024-01-16T08:12:53;9.38;;;5.40;;
83893;SDS011;73920;51.902;6.374;2024-01-16T08:15:19;10.38;;;5.60;;
83893;SDS011;73920;51.902;6.374;2024-01-16T08:17:45;11.68;;;5.50;;
83893;SDS011;73920;51.902;6.374;2024-01-16T08:20:11;9.75;;;4.93;;
83893;SDS011;73920;51.902;6.374;2024-01-16T08:22:37;11.80;;;5.35;;
83893;SDS011;73920;51.902;6.374;2024-01-16T08:25:04;16.25;;;5.57;;
83893;SDS011;73920;51.902;6.374;2024-01-16T08:27:31;15.75;;;5.62;;
83893;SDS011;73920;51.902;6.374;2024-01-16T08:29:57;15.50;;;6.05;;
83893;SDS011;73920;51.902;6.374;2024-01-16T08:32:24;12.13;;;6.05;;
83893;SDS011;73920;51.902;6.374;2024-01-16T08:34:50;16.08;;;5.28;;
83893;SDS011;73920;51.902;6.374;2024-01-16T08:37:16;11.40;;;5.45;;
83893;SDS011;73920;51.902;6.374;2024-01-16T08:39:43;12.88;;;5.53;;
83893;SDS011;73920;51.902;6.374;2024-01-16T08:42:09;16.90;;;5.47;;
83893;SDS011;73920;51.902;6.374;2024-01-16T08:44:35;11.05;;;5.03;;
83893;SDS011;73920;51.902;6.374;2024-01-16T08:47:04;10.93;;;4.30;;
83893;SDS011;73920;51.902;6.374;2024-01-16T08:49:31;13.35;;;4.35;;
83893;SDS011;73920;51.902;6.374;2024-01-16T08:51:57;8.40;;;3.80;;
83893;SDS011;73920;51.902;6.374;2024-01-16T08:54:23;10.75;;;4.40;;
83893;SDS011;73920;51.902;6.374;2024-01-16T08:56:50;8.60;;;4.15;;
83893;SDS011;73920;51.902;6.374;2024-01-16T08:59:16;6.97;;;4.20;;
83893;SDS011;73920;51.902;6.374;2024-01-16T09:01:42;5.97;;;2.87;;
83893;SDS011;73920;51.902;6.374;2024-01-16T09:04:08;12.75;;;4.30;;
83893;SDS011;73920;51.902;6.374;2024-01-16T09:06:34;7.65;;;3.78;;
83893;SDS011;73920;51.902;6.374;2024-01-16T09:09:01;7.87;;;3.67;;
83893;SDS011;73920;51.902;6.374;2024-01-16T09:11:27;11.25;;;4.05;;
83893;SDS011;73920;51.902;6.374;2024-01-16T09:13:53;5.82;;;3.50;;
83893;SDS011;73920;51.902;6.374;2024-01-16T09:16:20;7.90;;;3.45;;
83893;SDS011;73920;51.902;6.374;2024-01-16T09:18:46;10.43;;;3.17;;
83893;SDS011;73920;51.902;6.374;2024-01-16T09:21:13;7.50;;;3.42;;
83893;SDS011;73920;51.902;6.374;2024-01-16T09:23:39;5.10;;;2.97;;
83893;SDS011;73920;51.902;6.374;2024-01-16T09:26:06;10.77;;;4.05;;
83893;SDS011;73920;51.902;6.374;2024-01-16T09:28:32;7.57;;;3.55;;
83893;SDS011;73920;51.902;6.374;2024-01-16T09:30:58;6.95;;;3.28;;
83893;SDS011;73920;51.902;6.374;2024-01-16T09:33:24;10.80;;;3.28;;
83893;SDS011;73920;51.902;6.374;2024-01-16T09:35:51;7.00;;;3.20;;
83893;SDS011;73920;51.902;6.374;2024-01-16T09:38:17;9.23;;;2.78;;
83893;SDS011;73920;51.902;6.374;2024-01-16T09:40:44;9.18;;;4.32;;
83893;SDS011;73920;51.902;6.374;2024-01-16T09:43:10;5.78;;;2.90;;
83893;SDS011;73920;51.902;6.374;2024-01-16T09:45:37;8.40;;;3.45;;
83893;SDS011;73920;51.902;6.374;2024-01-16T09:48:04;6.35;;;3.03;;
83893;SDS011;73920;51.902;6.374;2024-01-16T09:50:32;6.10;;;2.92;;
83893;SDS011;73920;51.902;6.374;2024-01-16T09:52:59;8.45;;;2.92;;
83893;SDS011;73920;51.902;6.374;2024-01-16T09:55:25;4.80;;;2.90;;
83893;SDS011;73920;51.902;6.374;2024-01-16T09:57:52;5.05;;;2.53;;
83893;SDS011;73920;51.902;6.374;2024-01-16T10:00:19;4.40;;;2.70;;
83893;SDS011;73920;51.902;6.374;2024-01-16T10:02:45;14.85;;;2.67;;
83893;SDS011;73920;51.902;6.374;2024-01-16T10:05:12;6.00;;;2.67;;
83893;SDS011;73920;51.902;6.374;2024-01-16T10:07:39;7.40;;;2.83;;
83893;SDS011;73920;51.902;6.374;2024-01-16T10:10:07;14.93;;;3.72;;
83893;SDS011;73920;51.902;6.374;2024-01-16T10:12:35;8.07;;;3.25;;
83893;SDS011;73920;51.902;6.374;2024-01-16T10:15:01;7.82;;;3.00;;
83893;SDS011;73920;51.902;6.374;2024-01-16T10:20:01;6.45;;;2.55;;
83893;SDS011;73920;51.902;6.374;2024-01-16T10:22:28;7.35;;;2.45;;
83893;SDS011;73920;51.902;6.374;2024-01-16T10:25:04;5.50;;;2.58;;
83893;SDS011;73920;51.902;6.374;2024-01-16T10:27:32;7.57;;;2.58;;
83893;SDS011;73920;51.902;6.374;2024-01-16T10:29:59;6.15;;;2.60;;
83893;SDS011;73920;51.902;6.374;2024-01-16T10:35:16;9.43;;;3.00;;
83893;SDS011;73920;51.902;6.374;2024-01-16T10:37:45;3.45;;;1.80;;
83893;SDS011;73920;51.902;6.374;2024-01-16T10:40:18;5.37;;;2.25;;
83893;SDS011;73920;51.902;6.374;2024-01-16T10:42:46;5.70;;;2.67;;
83893;SDS011;73920;51.902;6.374;2024-01-16T10:45:22;10.15;;;2.65;;
83893;SDS011;73920;51.902;6.374;2024-01-16T10:47:49;7.05;;;2.30;;
83893;SDS011;73920;51.902;6.374;2024-01-16T10:50:20;10.07;;;2.30;;
83893;SDS011;73920;51.902;6.374;2024-01-16T10:52:47;5.37;;;2.20;;
83893;SDS011;73920;51.902;6.374;2024-01-16T10:55:16;7.15;;;2.22;;
83893;SDS011;73920;51.902;6.374;2024-01-16T10:57:48;5.82;;;2.40;;
83893;SDS011;73920;51.902;6.374;2024-01-16T11:00:16;5.78;;;2.45;;
83893;SDS011;73920;51.902;6.374;2024-01-16T11:02:58;2.67;;;2.00;;
83893;SDS011;73920;51.902;6.374;2024-01-16T11:05:31;8.52;;;2.37;;
83893;SDS011;73920;51.902;6.374;2024-01-16T11:07:57;6.97;;;2.42;;
83893;SDS011;73920;51.902;6.374;2024-01-16T11:10:25;5.57;;;2.10;;
83893;SDS011;73920;51.902;6.374;2024-01-16T11:12:52;4.18;;;2.05;;
83893;SDS011;73920;51.902;6.374;2024-01-16T11:15:21;3.80;;;2.00;;
83893;SDS011;73920;51.902;6.374;2024-01-16T11:17:48;6.20;;;2.08;;
83893;SDS011;73920;51.902;6.374;2024-01-16T11:20:15;4.40;;;1.73;;
83893;SDS011;73920;51.902;6.374;2024-01-16T11:22:43;4.95;;;2.12;;
83893;SDS011;73920;51.902;6.374;2024-01-16T11:25:11;5.43;;;2.20;;
83893;SDS011;73920;51.902;6.374;2024-01-16T11:30:08;10.50;;;1.87;;
83893;SDS011;73920;51.902;6.374;2024-01-16T11:32:37;5.25;;;2.05;;
83893;SDS011;73920;51.902;6.374;2024-01-16T11:35:04;3.92;;;2.25;;
83893;SDS011;73920;51.902;6.374;2024-01-16T11:37:38;8.63;;;2.53;;
83893;SDS011;73920;51.902;6.374;2024-01-16T11:42:45;5.20;;;1.98;;
83893;SDS011;73920;51.902;6.374;2024-01-16T11:48:15;4.07;;;1.65;;
83893;SDS011;73920;51.902;6.374;2024-01-16T11:50:42;5.87;;;2.47;;
83893;SDS011;73920;51.902;6.374;2024-01-16T11:53:09;5.18;;;2.10;;
83893;SDS011;73920;51.902;6.374;2024-01-16T12:00:59;7.90;;;2.28;;
83893;SDS011;73920;51.902;6.374;2024-01-16T12:03:27;7.47;;;2.40;;
83893;SDS011;73920;51.902;6.374;2024-01-16T12:05:56;5.53;;;2.15;;
83893;SDS011;73920;51.902;6.374;2024-01-16T12:08:23;4.85;;;2.22;;
83893;SDS011;73920;51.902;6.374;2024-01-16T12:10:50;3.58;;;1.90;;
83893;SDS011;73920;51.902;6.374;2024-01-16T12:13:17;5.45;;;2.50;;
83893;SDS011;73920;51.902;6.374;2024-01-16T12:15:43;8.18;;;1.98;;
83893;SDS011;73920;51.902;6.374;2024-01-16T12:18:10;6.60;;;1.95;;
83893;SDS011;73920;51.902;6.374;2024-01-16T12:20:43;4.82;;;2.10;;
83893;SDS011;73920;51.902;6.374;2024-01-16T12:23:09;5.15;;;2.05;;
83893;SDS011;73920;51.902;6.374;2024-01-16T12:25:38;4.32;;;2.22;;
83893;SDS011;73920;51.902;6.374;2024-01-16T12:28:05;4.85;;;2.30;;
83893;SDS011;73920;51.902;6.374;2024-01-16T12:30:33;3.53;;;1.95;;
83893;SDS011;73920;51.902;6.374;2024-01-16T12:38:06;9.93;;;2.72;;
83893;SDS011;73920;51.902;6.374;2024-01-16T12:40:36;5.50;;;2.28;;
83893;SDS011;73920;51.902;6.374;2024-01-16T12:43:05;4.62;;;2.12;;
83893;SDS011;73920;51.902;6.374;2024-01-16T12:45:32;10.85;;;3.35;;
83893;SDS011;73920;51.902;6.374;2024-01-16T12:47:59;8.93;;;2.50;;
83893;SDS011;73920;51.902;6.374;2024-01-16T12:50:27;5.05;;;2.35;;
83893;SDS011;73920;51.902;6.374;2024-01-16T12:55:26;4.50;;;2.47;;
83893;SDS011;73920;51.902;6.374;2024-01-16T13:00:28;4.93;;;2.42;;
83893;SDS011;73920;51.902;6.374;2024-01-16T13:02:55;6.60;;;2.53;;
83893;SDS011;73920;51.902;6.374;2024-01-16T13:05:21;5.68;;;2.00;;
83893;SDS011;73920;51.902;6.374;2024-01-16T13:07:59;6.30;;;2.42;;
83893;SDS011;73920;51.902;6.374;2024-01-16T13:10:26;5.68;;;2.25;;
83893;SDS011;73920;51.902;6.374;2024-01-16T13:12:52;5.43;;;2.35;;
83893;SDS011;73920;51.902;6.374;2024-01-16T13:15:36;6.97;;;2.17;;
83893;SDS011;73920;51.902;6.374;2024-01-16T13:18:03;3.78;;;1.98;;
83893;SDS011;73920;51.902;6.374;2024-01-16T13:20:29;6.85;;;2.35;;
83893;SDS011;73920;51.902;6.374;2024-01-16T13:22:55;5.97;;;2.28;;
83893;SDS011;73920;51.902;6.374;2024-01-16T13:25:22;3.58;;;1.73;;
83893;SDS011;73920;51.902;6.374;2024-01-16T13:27:48;4.65;;;2.15;;
83893;SDS011;73920;51.902;6.374;2024-01-16T13:30:14;4.15;;;2.00;;
83893;SDS011;73920;51.902;6.374;2024-01-16T13:32:41;4.05;;;2.70;;
83893;SDS011;73920;51.902;6.374;2024-01-16T13:35:07;5.00;;;2.50;;
83893;SDS011;73920;51.902;6.374;2024-01-16T13:37:33;3.47;;;2.15;;
83893;SDS011;73920;51.902;6.374;2024-01-16T13:40:00;7.40;;;2.90;;
83893;SDS011;73920;51.902;6.374;2024-01-16T13:42:26;10.95;;;2.72;;
83893;SDS011;73920;51.902;6.374;2024-01-16T13:44:52;7.78;;;2.50;;
83893;SDS011;73920;51.902;6.374;2024-01-16T13:47:18;4.43;;;2.40;;
83893;SDS011;73920;51.902;6.374;2024-01-16T13:49:44;6.70;;;2.75;;
83893;SDS011;73920;51.902;6.374;2024-01-16T13:52:11;9.10;;;2.55;;
83893;SDS011;73920;51.902;6.374;2024-01-16T13:54:37;5.03;;;2.47;;
83893;SDS011;73920;51.902;6.374;2024-01-16T13:57:03;5.90;;;2.42;;
83893;SDS011;73920;51.902;6.374;2024-01-16T13:59:30;7.55;;;2.75;;
83893;SDS011;73920;51.902;6.374;2024-01-16T14:01:56;5.55;;;3.05;;
83893;SDS011;73920;51.902;6.374;2024-01-16T14:04:22;7.72;;;2.62;;
83893;SDS011;73920;51.902;6.374;2024-01-16T14:06:49;6.87;;;2.47;;
83893;SDS011;73920;51.902;6.374;2024-01-16T14:09:15;6.62;;;2.87;;
83893;SDS011;73920;51.902;6.374;2024-01-16T14:11:41;6.43;;;3.10;;
83893;SDS011;73920;51.902;6.374;2024-01-16T14:14:07;4.20;;;2.40;;
83893;SDS011;73920;51.902;6.374;2024-01-16T14:16:33;4.20;;;2.33;;
83893;SDS011;73920;51.902;6.374;2024-01-16T14:19:00;7.03;;;3.00;;
83893;SDS011;73920;51.902;6.374;2024-01-16T14:21:26;8.57;;;2.97;;
83893;SDS011;73920;51.902;6.374;2024-01-16T14:23:52;8.60;;;2.50;;
83893;SDS011;73920;51.902;6.374;2024-01-16T14:26:18;8.77;;;2.92;;
83893;SDS011;73920;51.902;6.374;2024-01-16T14:28:45;6.50;;;2.35;;
83893;SDS011;73920;51.902;6.374;2024-01-16T14:31:11;4.87;;;2.15;;
83893;SDS011;73920;51.902;6.374;2024-01-16T14:33:37;4.43;;;2.30;;
83893;SDS011;73920;51.902;6.374;2024-01-16T14:36:03;4.55;;;2.25;;
83893;SDS011;73920;51.902;6.374;2024-01-16T14:38:31;7.65;;;2.45;;
83893;SDS011;73920;51.902;6.374;2024-01-16T14:40:57;5.47;;;2.45;;
83893;SDS011;73920;51.902;6.374;2024-01-16T14:43:23;5.55;;;2.45;;
83893;SDS011;73920;51.902;6.374;2024-01-16T14:45:49;7.65;;;3.10;;
83893;SDS011;73920;51.902;6.374;2024-01-16T14:48:15;5.12;;;2.53;;
83893;SDS011;73920;51.902;6.374;2024-01-16T14:50:42;6.57;;;2.80;;
83893;SDS011;73920;51.902;6.374;2024-01-16T14:53:08;5.47;;;2.58;;
83893;SDS011;73920;51.902;6.374;2024-01-16T14:55:34;7.28;;;2.47;;
83893;SDS011;73920;51.902;6.374;2024-01-16T14:58:00;4.05;;;1.92;;
83893;SDS011;73920;51.902;6.374;2024-01-16T15:00:27;5.15;;;2.65;;
83893;SDS011;73920;51.902;6.374;2024-01-16T15:02:53;5.53;;;2.60;;
83893;SDS011;73920;51.902;6.374;2024-01-16T15:05:20;2.97;;;2.05;;
83893;SDS011;73920;51.902;6.374;2024-01-16T15:07:47;4.62;;;2.70;;
83893;SDS011;73920;51.902;6.374;2024-01-16T15:10:14;7.07;;;2.90;;
83893;SDS011;73920;51.902;6.374;2024-01-16T15:12:41;3.53;;;2.10;;